Time;durP1;ratioP1;P1;durP2;ratioP2;P2;SDS_P1;SDS_P2;PMS_P1;PMS_P2;Temp;Humidity;BMP_temperature;BMP_pressure;BME280_temperature;BME280_humidity;BME280_pressure;Samples;Min_cycle;Max_cycle;Signal;HPM_P1;HPM_P2
2022/09/22 00:01:08;;;;;;;2.27;2.07;;;5.90;99.90;;;;;;6283811;22;20206;-83
2022/09/22 00:03:47;;;;;;;4.85;2.70;;;6.10;99.90;;;;;;6282142;22;20159;-83
2022/09/22 00:06:16;;;;;;;4.75;2.85;;;6.10;99.90;;;;;;6283423;22;20171;-84
2022/09/22 00:08:43;;;;;;;3.55;3.03;;;6.10;99.90;;;;;;6279283;22;20171;-85
2022/09/22 00:11:15;;;;;;;5.97;3.00;;;6.10;99.90;;;;;;6281219;22;20227;-84
2022/09/22 00:13:43;;;;;;;5.63;3.28;;;7.10;99.90;;;;;;6278915;22;20156;-83
2022/09/22 00:16:10;;;;;;;5.57;3.33;;;6.10;99.90;;;;;;6278592;22;20160;-83
2022/09/22 00:18:36;;;;;;;3.47;2.78;;;6.00;99.90;;;;;;6278181;22;20211;-80
2022/09/22 00:21:08;;;;;;;3.63;3.30;;;6.10;99.90;;;;;;6280239;22;20147;-85
2022/09/22 00:23:33;;;;;;;3.85;3.10;;;6.50;99.90;;;;;;6277706;22;20152;-83
2022/09/22 00:26:09;;;;;;;5.70;3.53;;;6.00;99.90;;;;;;6276173;22;20182;-81
2022/09/22 00:28:40;;;;;;;4.47;3.22;;;6.10;99.90;;;;;;6284982;22;20175;-82
2022/09/22 00:31:16;;;;;;;7.80;3.92;;;6.00;99.90;;;;;;6277127;22;20152;-82
2022/09/22 00:33:42;;;;;;;9.65;5.22;;;;;;;;;;6274534;22;20156;-81
2022/09/22 00:36:08;;;;;;;6.40;4.00;;;6.00;99.90;;;;;;6277061;22;20150;-83
2022/09/22 00:38:36;;;;;;;5.95;3.97;;;6.00;99.90;;;;;;6276733;22;20243;-83
2022/09/22 00:41:02;;;;;;;6.85;4.28;;;6.00;99.90;;;;;;6282211;22;20156;-82
2022/09/22 00:43:29;;;;;;;5.80;3.42;;;6.50;99.90;;;;;;6278956;22;20404;-82
2022/09/22 00:46:11;;;;;;;4.63;3.80;;;5.90;99.90;;;;;;6283402;22;20148;-81
2022/09/22 00:48:43;;;;;;;8.60;3.95;;;5.90;99.90;;;;;;6279619;22;20308;-82
2022/09/22 00:51:11;;;;;;;6.07;3.45;;;5.90;99.90;;;;;;6283340;22;20148;-83
2022/09/22 00:53:37;;;;;;;9.30;2.90;;;5.80;99.90;;;;;;6284054;22;20148;-83
2022/09/22 00:56:20;;;;;;;4.33;3.80;;;5.80;99.90;;;;;;6285285;22;20156;-82
2022/09/22 00:58:57;;;;;;;3.40;3.03;;;5.80;99.90;;;;;;6282102;22;20183;-82
2022/09/22 01:01:23;;;;;;;5.43;3.60;;;5.70;99.90;;;;;;6274480;22;20159;-81
2022/09/22 01:03:49;;;;;;;3.67;3.00;;;;;;;;;;6276959;22;20206;-82
2022/09/22 01:06:22;;;;;;;4.95;3.45;;;5.70;99.90;;;;;;6276023;22;20159;-84
2022/09/22 01:08:48;;;;;;;7.57;4.15;;;5.60;99.90;;;;;;6278882;22;20186;-82
2022/09/22 01:11:14;;;;;;;4.47;3.15;;;;;;;;;;6279319;22;20156;-83
2022/09/22 01:14:17;;;;;;;3.60;2.65;;;5.60;99.90;;;;;;6275355;22;20198;-83
2022/09/22 01:16:53;;;;;;;5.65;2.80;;;5.50;99.90;;;;;;6273810;22;20158;-81
2022/09/22 01:19:56;;;;;;;4.25;3.28;;;5.60;99.90;;;;;;6278333;22;20162;-82
2022/09/22 01:22:31;;;;;;;4.00;2.70;;;5.50;99.90;;;;;;6278092;22;20163;-82
2022/09/22 01:25:31;;;;;;;5.75;3.15;;;5.50;99.90;;;;;;6279721;22;20512;-81
2022/09/22 01:28:13;;;;;;;3.47;3.00;;;5.40;99.90;;;;;;6280187;22;20168;-80
2022/09/22 01:30:48;;;;;;;3.72;3.05;;;5.30;99.90;;;;;;6282170;22;20586;-83
2022/09/22 01:33:41;;;;;;;5.57;3.90;;;5.40;99.90;;;;;;6280962;22;20189;-84
2022/09/22 01:36:21;;;;;;;4.10;3.10;;;5.30;99.90;;;;;;6199048;22;20156;-80
2022/09/22 01:39:11;;;;;;;5.53;3.28;;;5.30;99.90;;;;;;6279611;22;20191;-84
2022/09/22 01:41:59;;;;;;;6.25;3.00;;;5.30;99.90;;;;;;6281405;22;20146;-84
2022/09/22 01:44:42;;;;;;;4.22;3.30;;;5.30;99.90;;;;;;6283760;22;20139;-81
2022/09/22 01:47:15;;;;;;;4.30;3.30;;;5.20;99.90;;;;;;6283150;22;20619;-83
2022/09/22 01:49:45;;;;;;;7.60;3.58;;;5.20;99.90;;;;;;6282499;22;20172;-82
2022/09/22 01:52:17;;;;;;;7.95;3.00;;;5.20;99.90;;;;;;6282516;22;20406;-82
2022/09/22 01:54:49;;;;;;;4.90;3.03;;;5.20;99.90;;;;;;6280513;22;20228;-84
2022/09/22 01:57:48;;;;;;;6.35;3.80;;;5.10;99.90;;;;;;6283861;22;20199;-82
2022/09/22 02:00:14;;;;;;;3.90;3.08;;;5.10;99.90;;;;;;6261134;22;20152;-84
2022/09/22 02:02:59;;;;;;;10.18;4.22;;;5.10;99.90;;;;;;6282650;22;20154;-83
2022/09/22 02:05:38;;;;;;;7.95;4.28;;;5.10;99.90;;;;;;6284135;22;20151;-84
2022/09/22 02:08:12;;;;;;;5.00;3.53;;;5.00;99.90;;;;;;6281125;22;20176;-84
2022/09/22 02:10:41;;;;;;;5.75;3.58;;;4.90;99.90;;;;;;6282110;22;20533;-83
2022/09/22 02:13:07;;;;;;;7.32;3.53;;;4.90;99.90;;;;;;6281148;22;20166;-85
2022/09/22 02:18:32;;;;;;;6.30;4.38;;;4.80;99.90;;;;;;6286049;22;20220;-84
2022/09/22 02:20:59;;;;;;;11.88;3.88;;;4.80;99.90;;;;;;6284235;22;20147;-85
2022/09/22 02:23:24;;;;;;;5.75;3.72;;;4.70;99.90;;;;;;6283280;22;20186;-84
2022/09/22 02:25:52;;;;;;;6.53;4.50;;;4.70;99.90;;;;;;6280416;22;20152;-83
2022/09/22 02:28:21;;;;;;;6.60;4.22;;;4.60;99.90;;;;;;6283961;22;20164;-83
2022/09/22 02:30:49;;;;;;;7.50;4.63;;;4.60;99.90;;;;;;6285663;22;20568;-83
2022/09/22 02:33:15;;;;;;;9.55;3.15;;;;;;;;;;6283243;22;20210;-83
2022/09/22 02:35:46;;;;;;;4.50;4.10;;;4.60;99.90;;;;;;6283583;22;20521;-81
2022/09/22 02:38:28;;;;;;;6.53;4.00;;;4.50;99.90;;;;;;6282725;22;20481;-83
2022/09/22 02:41:03;;;;;;;6.07;4.30;;;4.50;99.90;;;;;;6282398;22;20159;-84
2022/09/22 02:43:40;;;;;;;4.35;3.60;;;4.50;99.90;;;;;;6284320;22;20151;-82
2022/09/22 02:46:26;;;;;;;5.07;3.65;;;4.60;99.90;;;;;;6282760;22;20178;-83
2022/09/22 02:49:00;;;;;;;5.82;4.60;;;4.50;99.90;;;;;;6278286;22;20645;-82
2022/09/22 02:51:27;;;;;;;7.30;4.32;;;4.50;99.90;;;;;;6280489;22;20468;-82
2022/09/22 02:53:53;;;;;;;5.97;4.03;;;4.40;99.90;;;;;;6282146;22;20156;-81
2022/09/22 02:56:19;;;;;;;6.07;3.87;;;4.40;99.90;;;;;;6286932;22;20159;-82
2022/09/22 02:58:44;;;;;;;4.57;3.73;;;4.40;99.90;;;;;;6286577;22;20188;-79
2022/09/22 03:01:10;;;;;;;5.50;3.77;;;4.50;99.90;;;;;;6282968;22;20158;-81
2022/09/22 03:03:35;;;;;;;5.00;3.50;;;4.50;99.90;;;;;;6284476;22;20144;-83
2022/09/22 03:06:01;;;;;;;6.07;4.17;;;4.60;99.90;;;;;;6286053;22;20152;-82
2022/09/22 03:08:27;;;;;;;5.73;4.00;;;;;;;;;;6286645;22;20174;-82
2022/09/22 03:10:52;;;;;;;5.30;2.73;;;4.60;99.90;;;;;;6287775;22;20174;-81
2022/09/22 03:13:18;;;;;;;5.07;3.80;;;;;;;;;;6288227;22;20452;-82
2022/09/22 03:15:44;;;;;;;9.33;4.20;;;4.50;99.90;;;;;;6286964;22;20167;-82
2022/09/22 03:18:10;;;;;;;4.55;3.80;;;4.60;99.90;;;;;;6287634;22;20529;-82
2022/09/22 03:20:36;;;;;;;5.00;3.80;;;;;;;;;;6286195;22;20579;-82
2022/09/22 03:23:02;;;;;;;7.55;3.88;;;;;;;;;;6280810;22;20163;-85
2022/09/22 03:25:27;;;;;;;5.13;4.47;;;4.50;99.90;;;;;;6280690;22;20193;-82
2022/09/22 03:27:53;;;;;;;6.70;4.40;;;;;;;;;;6283074;22;20394;-81
2022/09/22 03:30:19;;;;;;;8.33;4.97;;;;;;;;;;6280246;22;20205;-83
2022/09/22 03:32:45;;;;;;;7.43;4.03;;;;;;;;;;6285582;22;20402;-81
2022/09/22 03:35:11;;;;;;;4.18;3.70;;;4.60;99.90;;;;;;6280286;22;20457;-80
2022/09/22 03:37:37;;;;;;;5.23;3.83;;;;;;;;;;6284990;22;20183;-83
2022/09/22 03:40:03;;;;;;;5.80;3.97;;;4.60;99.90;;;;;;6279726;22;20168;-83
2022/09/22 03:42:29;;;;;;;4.00;3.38;;;4.70;99.90;;;;;;6283438;22;20428;-83
2022/09/22 03:44:54;;;;;;;8.97;4.17;;;4.60;99.90;;;;;;6281104;22;20164;-84
2022/09/22 03:47:20;;;;;;;10.93;4.50;;;;;;;;;;6280527;22;20258;-87
2022/09/22 03:49:47;;;;;;;6.33;3.50;;;;;;;;;;6265599;22;20155;-87
2022/09/22 03:52:13;;;;;;;5.25;3.25;;;4.50;99.90;;;;;;6270072;22;20374;-87
2022/09/22 03:54:38;;;;;;;5.17;3.80;;;4.40;99.90;;;;;;6272741;22;20211;-86
2022/09/22 03:57:04;;;;;;;7.60;4.80;;;;;;;;;;6268351;22;20175;-87
2022/09/22 03:59:31;;;;;;;8.40;4.60;;;;;;;;;;6266535;22;20182;-87
2022/09/22 04:01:56;;;;;;;8.00;5.35;;;4.20;99.90;;;;;;6268355;22;20383;-86
2022/09/22 04:04:23;;;;;;;7.30;5.27;;;;;;;;;;6268271;22;20175;-86
2022/09/22 04:06:49;;;;;;;6.07;4.63;;;4.20;99.90;;;;;;6270280;22;20211;-87
2022/09/22 04:09:17;;;;;;;7.97;5.50;;;;;;;;;;6269674;22;20152;-87
2022/09/22 04:11:43;;;;;;;5.88;4.60;;;4.20;99.90;;;;;;6268526;22;20515;-87
2022/09/22 04:14:10;;;;;;;8.07;4.97;;;4.30;99.90;;;;;;6266641;22;20140;-87
2022/09/22 04:16:35;;;;;;;8.40;5.10;;;4.20;99.90;;;;;;6266499;22;20152;-88
2022/09/22 04:19:03;;;;;;;7.30;5.13;;;4.20;99.90;;;;;;6269460;22;20221;-87
2022/09/22 04:21:29;;;;;;;6.53;4.43;;;4.20;99.90;;;;;;6271637;22;20171;-87
2022/09/22 04:23:55;;;;;;;11.30;6.07;;;;;;;;;;6282709;22;20152;-85
2022/09/22 04:26:21;;;;;;;7.03;4.93;;;4.30;99.90;;;;;;6269702;22;20180;-85
2022/09/22 04:28:47;;;;;;;12.97;5.93;;;;;;;;;;6272254;22;20140;-85
2022/09/22 04:31:13;;;;;;;11.23;7.30;;;4.30;99.90;;;;;;6272268;22;20160;-88
2022/09/22 04:33:39;;;;;;;11.85;7.20;;;4.30;99.90;;;;;;6270304;22;20626;-86
2022/09/22 04:36:05;;;;;;;9.20;5.80;;;4.30;99.90;;;;;;6269421;22;20175;-87
2022/09/22 04:38:31;;;;;;;11.00;6.13;;;;;;;;;;6275516;22;20201;-86
2022/09/22 04:40:57;;;;;;;6.60;4.63;;;4.30;99.90;;;;;;6284138;22;20204;-86
2022/09/22 04:43:22;;;;;;;8.87;5.27;;;4.30;99.90;;;;;;6273298;22;20397;-85
2022/09/22 04:45:48;;;;;;;7.20;4.60;;;;;;;;;;6269101;22;20178;-86
2022/09/22 04:48:17;;;;;;;6.20;4.23;;;4.30;99.90;;;;;;6269463;22;20220;-87
2022/09/22 04:50:43;;;;;;;6.85;4.65;;;4.30;99.90;;;;;;6271011;22;20382;-86
2022/09/22 04:53:09;;;;;;;12.97;6.60;;;4.30;99.90;;;;;;6269347;22;20151;-86
2022/09/22 04:55:34;;;;;;;12.50;6.22;;;4.30;99.90;;;;;;6273039;22;20144;-84
2022/09/22 04:58:00;;;;;;;15.60;6.80;;;4.30;99.90;;;;;;6270852;22;20210;-84
2022/09/22 05:00:27;;;;;;;13.77;5.60;;;4.20;99.90;;;;;;6272221;22;20461;-86
2022/09/22 05:02:53;;;;;;;8.30;5.13;;;4.10;99.90;;;;;;6271437;22;20190;-85
2022/09/22 05:05:19;;;;;;;12.57;6.13;;;;;;;;;;6275127;22;20704;-85
2022/09/22 05:07:47;;;;;;;10.55;6.50;;;4.10;99.90;;;;;;6277001;22;20713;-86
2022/09/22 05:10:16;;;;;;;11.10;6.75;;;4.10;99.90;;;;;;6278480;22;20629;-86
2022/09/22 05:12:43;;;;;;;10.18;6.18;;;5.90;99.90;;;;;;6279561;22;20144;-85
2022/09/22 05:15:10;;;;;;;11.10;7.53;;;4.20;99.90;;;;;;6263895;22;20636;-85
2022/09/22 05:17:35;;;;;;;10.75;5.95;;;4.20;99.90;;;;;;6277504;22;20207;-85
2022/09/22 05:20:03;;;;;;;11.87;5.50;;;4.30;99.90;;;;;;6279293;22;20164;-84
2022/09/22 05:22:30;;;;;;;10.63;5.85;;;4.40;99.90;;;;;;6278012;22;20148;-86
2022/09/22 05:24:55;;;;;;;11.48;6.45;;;4.40;99.90;;;;;;6278026;22;20997;-85
2022/09/22 05:27:21;;;;;;;10.00;6.40;;;4.40;99.90;;;;;;6276465;22;20155;-85
2022/09/22 05:29:47;;;;;;;10.33;7.70;;;;;;;;;;6278570;22;20179;-86
2022/09/22 05:32:13;;;;;;;11.77;7.38;;;5.20;99.90;;;;;;6278813;22;20471;-85
2022/09/22 05:34:39;;;;;;;10.57;6.20;;;6.50;99.90;;;;;;6277234;22;20223;-86
2022/09/22 05:37:05;;;;;;;16.90;7.63;;;;;;;;;;6275590;22;20172;-86
2022/09/22 05:39:30;;;;;;;10.47;5.53;;;9.80;99.90;;;;;;6274682;22;20188;-85
2022/09/22 05:41:56;;;;;;;7.57;4.23;;;;;;;;;;6274938;22;21223;-85
2022/09/22 05:44:22;;;;;;;6.30;3.90;;;;;;;;;;6283197;22;20128;-85
2022/09/22 05:46:48;;;;;;;4.30;3.87;;;;;;;;;;6298417;22;20451;-84
2022/09/22 05:49:14;;;;;;;7.15;4.75;;;;;;;;;;6295148;22;20426;-87
2022/09/22 05:51:40;;;;;;;8.87;4.93;;;12.40;99.90;;;;;;6292374;22;20159;-85
2022/09/22 05:54:06;;;;;;;6.77;4.47;;;12.90;99.90;;;;;;6296706;22;20446;-86
2022/09/22 05:56:32;;;;;;;4.90;3.30;;;;;;;;;;6280924;22;20592;-85
2022/09/22 05:58:58;;;;;;;4.95;3.63;;;;;;;;;;6277202;22;20226;-85
2022/09/22 06:01:24;;;;;;;4.40;2.80;;;;;;;;;;6279349;22;20503;-85
2022/09/22 06:03:50;;;;;;;3.90;2.70;;;;;;;;;;6276757;22;20366;-85
2022/09/22 06:06:16;;;;;;;3.60;2.67;;;;;;;;;;6277495;22;20868;-84
2022/09/22 06:08:41;;;;;;;4.60;3.10;;;;;;;;;;6276815;22;20429;-85
2022/09/22 06:11:07;;;;;;;3.73;3.33;;;;;;;;;;6276589;22;20391;-85
2022/09/22 06:13:34;;;;;;;6.03;2.73;;;;;;;;;;6277926;22;20359;-88
2022/09/22 06:16:01;;;;;;;4.47;3.40;;;22.70;96.30;;;;;;6274133;22;20460;-86
2022/09/22 06:18:28;;;;;;;4.73;3.23;;;;;;;;;;6279200;22;20414;-87
2022/09/22 06:20:55;;;;;;;6.20;4.50;;;;;;;;;;6277440;22;20705;-87
2022/09/22 06:23:21;;;;;;;5.03;3.33;;;26.50;77.70;;;;;;6278138;22;20374;-86
2022/09/22 06:25:47;;;;;;;7.43;4.80;;;;;;;;;;6276368;22;20363;-86
2022/09/22 06:28:13;;;;;;;6.17;4.10;;;;;;;;;;6275546;22;20399;-84
2022/09/22 06:30:40;;;;;;;5.47;4.97;;;;;;;;;;6276786;22;20697;-87
2022/09/22 06:33:06;;;;;;;6.13;4.73;;;27.90;63.20;;;;;;6277777;22;20367;-84
2022/09/22 06:35:36;;;;;;;8.17;5.00;;;;;;;;;;6277152;22;20414;-87
2022/09/22 06:38:06;;;;;;;8.60;5.00;;;27.60;57.20;;;;;;6272170;22;20428;-87
2022/09/22 06:40:35;;;;;;;5.80;4.73;;;28.10;58.60;;;;;;6271268;22;20382;-89
2022/09/22 06:43:06;;;;;;;8.20;5.00;;;;;;;;;;6269027;22;20462;-86
2022/09/22 06:45:32;;;;;;;7.43;4.70;;;;;;;;;;6273652;22;20386;-87
2022/09/22 06:47:59;;;;;;;4.97;4.30;;;;;;;;;;6272913;22;20471;-89
2022/09/22 06:50:30;;;;;;;7.10;4.33;;;27.60;54.70;;;;;;6274250;22;20381;-88
2022/09/22 06:52:58;;;;;;;6.07;4.33;;;26.10;54.90;;;;;;6275148;22;20356;-87
2022/09/22 06:55:25;;;;;;;6.13;5.03;;;27.10;56.20;;;;;;6272619;22;20403;-86
2022/09/22 06:57:51;;;;;;;5.70;4.83;;;;;;;;;;6270066;22;20849;-86
2022/09/22 07:00:17;;;;;;;5.40;4.13;;;;;;;;;;6272985;22;20721;-89
2022/09/22 07:02:43;;;;;;;6.87;4.90;;;;;;;;;;6272398;22;20444;-88
2022/09/22 07:05:09;;;;;;;7.37;4.53;;;;;;;;;;6275816;22;20352;-88
2022/09/22 07:07:35;;;;;;;8.30;6.40;;;;;;;;;;6272344;22;20953;-87
2022/09/22 07:10:01;;;;;;;10.30;6.80;;;;;;;;;;6273943;22;20439;-87
2022/09/22 07:12:27;;;;;;;7.37;5.80;;;;;;;;;;6274523;22;20382;-87
2022/09/22 07:14:55;;;;;;;11.98;6.55;;;;;;;;;;6273897;22;20395;-87
2022/09/22 07:17:21;;;;;;;4.93;4.50;;;;;;;;;;6276987;22;20257;-88
2022/09/22 07:19:47;;;;;;;7.40;5.60;;;31.30;48.40;;;;;;6277478;22;20366;-86
2022/09/22 07:22:14;;;;;;;7.27;5.30;;;31.50;48.20;;;;;;6273257;22;20915;-83
2022/09/22 07:24:40;;;;;;;5.40;4.87;;;30.20;45.50;;;;;;6273108;22;20468;-83
2022/09/22 07:27:06;;;;;;;6.23;4.93;;;28.70;48.10;;;;;;6272801;22;20462;-87
2022/09/22 07:29:32;;;;;;;7.23;4.97;;;29.40;48.90;;;;;;6274766;22;20432;-87
2022/09/22 07:31:58;;;;;;;5.10;4.60;;;;;;;;;;6272151;22;20151;-86
2022/09/22 07:34:27;;;;;;;8.20;4.23;;;29.10;47.20;;;;;;6272715;22;20857;-88
2022/09/22 07:36:53;;;;;;;6.43;4.33;;;28.40;48.00;;;;;;6277919;22;20383;-89
2022/09/22 07:39:19;;;;;;;6.20;4.63;;;29.50;48.40;;;;;;6277888;22;20393;-87
2022/09/22 07:41:46;;;;;;;9.03;4.80;;;;;;;;;;6275332;22;20930;-84
2022/09/22 07:47:11;;;;;;;5.50;4.80;;;29.00;48.50;;;;;;6245876;22;20374;-85
2022/09/22 07:49:36;;;;;;;6.13;4.70;;;29.00;49.00;;;;;;6277367;22;20421;-86
2022/09/22 07:52:03;;;;;;;6.93;5.20;;;28.40;47.90;;;;;;6278649;22;20229;-86
2022/09/22 07:54:29;;;;;;;4.90;4.30;;;30.10;51.50;;;;;;6279934;22;20146;-86
2022/09/22 07:56:57;;;;;;;6.80;5.30;;;;;;;;;;6279993;22;20843;-85
2022/09/22 07:59:23;;;;;;;5.13;4.30;;;26.30;51.10;;;;;;6274756;22;20403;-89
2022/09/22 08:01:50;;;;;;;7.73;5.73;;;26.30;51.60;;;;;;6274407;22;20368;-87
2022/09/22 08:04:21;;;;;;;9.20;5.30;;;26.00;51.60;;;;;;6269314;22;20400;-86
2022/09/22 08:06:50;;;;;;;7.87;6.30;;;26.80;52.90;;;;;;6270271;22;20356;-86
2022/09/22 08:09:17;;;;;;;5.60;4.70;;;28.00;52.10;;;;;;6267622;22;20404;-88
2022/09/22 08:11:44;;;;;;;8.80;5.20;;;29.20;49.80;;;;;;6269221;22;20456;-87
2022/09/22 08:14:11;;;;;;;8.13;5.80;;;28.60;50.00;;;;;;6268070;22;20396;-88
2022/09/22 08:16:38;;;;;;;6.73;5.10;;;28.30;50.80;;;;;;6269816;22;20677;-87
2022/09/22 08:19:11;;;;;;;12.43;5.73;;;29.30;48.80;;;;;;6270057;22;20460;-87
2022/09/22 08:21:37;;;;;;;7.77;5.43;;;;;;;;;;6269296;22;20380;-87
2022/09/22 08:24:04;;;;;;;8.20;5.90;;;29.20;49.00;;;;;;6269839;22;20376;-87
2022/09/22 08:26:29;;;;;;;6.37;5.47;;;28.50;50.80;;;;;;6270737;22;20722;-86
2022/09/22 08:28:56;;;;;;;7.30;5.30;;;26.70;51.10;;;;;;6269102;22;20435;-87
2022/09/22 08:31:23;;;;;;;6.80;4.80;;;27.40;52.50;;;;;;6271572;22;20159;-88
2022/09/22 08:33:53;;;;;;;6.77;6.13;;;28.30;51.40;;;;;;6269763;22;20420;-88
2022/09/22 08:36:20;;;;;;;5.47;4.97;;;27.90;50.70;;;;;;6271766;22;20848;-88
2022/09/22 08:38:48;;;;;;;4.90;3.07;;;27.40;51.10;;;;;;6270173;22;20465;-88
2022/09/22 08:41:27;;;;;;;2.87;2.50;;;27.90;47.90;;;;;;6270083;22;20393;-87
2022/09/22 08:43:56;;;;;;;3.80;3.00;;;28.50;46.60;;;;;;6268579;22;20857;-88
2022/09/22 08:46:34;;;;;;;4.70;4.20;;;29.30;47.30;;;;;;6268908;22;20401;-87
2022/09/22 08:52:14;;;;;;;6.17;3.40;;;28.20;47.60;;;;;;6270659;22;20404;-88
2022/09/22 08:54:41;;;;;;;4.27;2.83;;;28.20;49.00;;;;;;6272313;22;20814;-87
2022/09/22 08:57:21;;;;;;;4.93;3.10;;;28.30;48.10;;;;;;6268954;22;20440;-87
2022/09/22 09:00:04;;;;;;;5.00;3.10;;;27.50;47.30;;;;;;6271334;22;20364;-85
2022/09/22 09:02:40;;;;;;;3.20;2.90;;;26.20;48.90;;;;;;6268993;22;20387;-86
2022/09/22 09:05:15;;;;;;;3.30;3.00;;;24.80;52.50;;;;;;6270282;22;20378;-86
2022/09/22 09:07:59;;;;;;;3.87;3.00;;;25.70;51.80;;;;;;6269086;22;20439;-83
2022/09/22 09:10:48;;;;;;;7.27;2.83;;;25.60;51.00;;;;;;6269487;22;20386;-86
2022/09/22 09:13:25;;;;;;;2.70;2.50;;;24.00;52.30;;;;;;6267784;22;20417;-87
2022/09/22 09:16:03;;;;;;;2.90;2.30;;;23.60;53.60;;;;;;6267460;22;20381;-87
2022/09/22 09:18:33;;;;;;;2.63;2.00;;;22.50;55.80;;;;;;6271240;22;20452;-88
2022/09/22 09:21:08;;;;;;;2.80;2.40;;;22.90;56.00;;;;;;6270825;22;20633;-88
2022/09/22 09:23:44;;;;;;;4.00;2.37;;;23.40;55.40;;;;;;6269104;22;20475;-87
2022/09/22 09:26:12;;;;;;;2.80;2.13;;;23.20;55.90;;;;;;6268804;22;20517;-87
2022/09/22 09:28:43;;;;;;;2.87;2.60;;;22.60;55.40;;;;;;6267963;22;20402;-87
2022/09/22 09:31:17;;;;;;;4.90;2.33;;;22.50;56.50;;;;;;6269084;22;20428;-88
2022/09/22 09:33:57;;;;;;;4.20;2.33;;;22.00;57.70;;;;;;6268530;22;20369;-87
2022/09/22 09:36:30;;;;;;;2.10;1.90;;;21.80;58.40;;;;;;6269111;22;20402;-88
2022/09/22 09:38:57;;;;;;;4.37;1.97;;;21.90;58.00;;;;;;6271556;22;20430;-86
2022/09/22 09:41:30;;;;;;;4.40;2.40;;;21.80;57.20;;;;;;6271021;22;20383;-86
2022/09/22 09:43:56;;;;;;;6.20;2.20;;;21.70;57.30;;;;;;6272447;22;20355;-86
2022/09/22 09:46:46;;;;;;;2.23;1.70;;;21.90;57.80;;;;;;6271319;22;20378;-86
2022/09/22 09:49:16;;;;;;;5.03;2.40;;;21.80;57.90;;;;;;6273212;22;20257;-88
2022/09/22 09:51:47;;;;;;;3.00;1.90;;;21.80;58.20;;;;;;6274868;22;20386;-88
2022/09/22 09:54:15;;;;;;;2.27;1.80;;;21.40;56.70;;;;;;6275333;22;20489;-88
2022/09/22 09:57:02;;;;;;;2.77;2.00;;;20.10;58.40;;;;;;6277552;22;20405;-87
2022/09/22 10:02:37;;;;;;;2.03;1.60;;;18.90;63.50;;;;;;6280169;22;20353;-89
2022/09/22 10:05:16;;;;;;;5.60;2.30;;;17.50;70.10;;;;;;6280575;22;20378;-89
2022/09/22 10:07:44;;;;;;;3.83;2.17;;;17.40;70.80;;;;;;6278447;22;20370;-88
2022/09/22 10:10:36;;;;;;;2.70;2.33;;;17.00;77.70;;;;;;6281372;22;20410;-88
2022/09/22 10:13:23;;;;;;;4.50;1.63;;;16.90;78.90;;;;;;6279478;22;20406;-89
2022/09/22 10:16:20;;;;;;;1.93;1.60;;;16.80;79.10;;;;;;6274724;22;20391;-88
2022/09/22 10:18:47;;;;;;;2.70;2.00;;;16.70;84.70;;;;;;6276774;22;21074;-88
2022/09/22 10:21:14;;;;;;;1.80;1.53;;;16.70;83.60;;;;;;6277053;22;20448;-90
2022/09/22 10:23:45;;;;;;;2.83;1.83;;;16.70;85.10;;;;;;6278307;22;20928;-88
2022/09/22 10:26:32;;;;;;;3.63;2.23;;;16.50;84.60;;;;;;6278471;22;20502;-89
2022/09/22 10:29:17;;;;;;;3.47;2.03;;;16.60;87.10;;;;;;6280508;22;20439;-89
2022/09/22 10:32:02;;;;;;;4.53;2.40;;;16.90;90.10;;;;;;6279392;22;20421;-89
2022/09/22 10:34:38;;;;;;;4.93;2.50;;;16.90;86.80;;;;;;6279212;22;20740;-88
2022/09/22 10:37:09;;;;;;;6.20;2.40;;;16.80;90.10;;;;;;6274845;22;20868;-89
2022/09/22 10:39:50;;;;;;;8.93;2.50;;;18.10;91.20;;;;;;6277409;22;20381;-88
2022/09/22 10:42:34;;;;;;;3.30;2.00;;;17.00;90.60;;;;;;6279067;22;20370;-88
2022/09/22 10:45:10;;;;;;;2.73;2.03;;;17.20;86.80;;;;;;6280436;22;20350;-90
2022/09/22 10:48:10;;;;;;;3.73;2.27;;;17.20;88.10;;;;;;6271930;22;20454;-88
2022/09/22 10:51:07;;;;;;;4.53;2.20;;;17.20;87.50;;;;;;6275099;22;20371;-88
2022/09/22 10:53:49;;;;;;;2.33;2.13;;;17.30;87.60;;;;;;6281589;22;20460;-88
2022/09/22 10:56:32;;;;;;;4.63;2.07;;;17.30;86.90;;;;;;6279945;22;20449;-89
2022/09/22 10:59:03;;;;;;;3.50;2.37;;;17.30;88.10;;;;;;6279524;22;20411;-88
2022/09/22 11:01:52;;;;;;;4.73;1.97;;;17.40;89.70;;;;;;6283987;22;20391;-88
2022/09/22 11:04:30;;;;;;;3.70;2.23;;;17.50;89.20;;;;;;6279620;22;20370;-88
2022/09/22 11:13:56;;;;;;;4.07;2.53;;;17.70;93.00;;;;;;6283186;22;20745;-88
2022/09/22 11:16:32;;;;;;;5.30;2.10;;;18.10;88.30;;;;;;6273446;22;20918;-88
2022/09/22 11:19:14;;;;;;;3.60;2.03;;;18.00;88.50;;;;;;6283188;22;20406;-89
2022/09/22 11:21:54;;;;;;;2.27;2.07;;;17.80;87.00;;;;;;6281286;22;20844;-87
2022/09/22 11:24:49;;;;;;;5.67;2.33;;;17.80;87.40;;;;;;6280996;22;20373;-88
2022/09/22 11:27:42;;;;;;;2.70;2.27;;;18.00;90.90;;;;;;6281548;22;20400;-88
2022/09/22 11:30:08;;;;;;;3.53;2.37;;;18.30;89.30;;;;;;6281508;22;20371;-90
2022/09/22 11:33:01;;;;;;;3.50;2.33;;;18.30;89.90;;;;;;6278327;22;20389;-88
2022/09/22 11:35:31;;;;;;;2.53;2.33;;;18.60;89.60;;;;;;6260598;22;20202;-87
2022/09/22 11:38:10;;;;;;;2.90;2.07;;;18.70;85.30;;;;;;6280018;22;20418;-89
2022/09/22 11:41:06;;;;;;;1.97;1.50;;;18.70;83.20;;;;;;6278000;22;20370;-88
2022/09/22 11:43:45;;;;;;;4.20;2.80;;;18.60;83.70;;;;;;6278885;22;20371;-87
2022/09/22 11:46:28;;;;;;;2.80;2.30;;;18.60;83.50;;;;;;6278839;22;20413;-90
2022/09/22 11:49:06;;;;;;;3.30;2.37;;;18.40;84.80;;;;;;6279044;22;20429;-87
2022/09/22 11:51:45;;;;;;;7.70;2.73;;;18.50;85.30;;;;;;6279439;22;20408;-89
2022/09/22 11:54:48;;;;;;;2.87;2.57;;;18.60;85.00;;;;;;6278795;22;20841;-88
2022/09/22 11:59:54;;;;;;;5.70;2.30;;;18.90;83.10;;;;;;6275417;22;20411;-86
2022/09/22 12:02:31;;;;;;;2.43;1.90;;;19.10;85.80;;;;;;6270838;22;20351;-87
2022/09/22 12:05:08;;;;;;;5.93;1.83;;;19.00;86.80;;;;;;6275782;22;20466;-86
2022/09/22 12:07:58;;;;;;;2.93;1.90;;;19.40;84.20;;;;;;6272850;22;20408;-87
2022/09/22 12:10:40;;;;;;;2.87;1.93;;;19.70;80.40;;;;;;6280414;22;20383;-87
2022/09/22 12:13:19;;;;;;;3.03;1.70;;;19.60;79.30;;;;;;6278556;22;20375;-86
2022/09/22 12:16:02;;;;;;;2.10;1.73;;;19.60;79.20;;;;;;6271176;22;20378;-86
2022/09/22 12:18:43;;;;;;;4.50;1.90;;;19.60;76.70;;;;;;6285397;22;20434;-86
2022/09/22 12:21:25;;;;;;;2.07;1.87;;;19.60;77.60;;;;;;6278751;22;20390;-86
2022/09/22 12:23:51;;;;;;;7.30;1.90;;;19.50;77.70;;;;;;6277194;22;20357;-86
2022/09/22 12:26:32;;;;;;;5.63;1.40;;;19.20;77.20;;;;;;6275590;22;20417;-88
2022/09/22 12:29:00;;;;;;;3.43;1.53;;;19.60;76.30;;;;;;6277202;22;20359;-86
2022/09/22 12:31:38;;;;;;;1.30;1.20;;;21.30;78.90;;;;;;6274725;22;20379;-86
2022/09/22 12:34:14;;;;;;;1.33;1.23;;;19.70;75.10;;;;;;6273124;22;20378;-85
2022/09/22 12:36:40;;;;;;;2.33;1.63;;;19.20;72.40;;;;;;6274191;22;20453;-85
2022/09/22 12:39:10;;;;;;;1.77;1.67;;;18.70;76.20;;;;;;6274777;22;20475;-86
2022/09/22 12:41:59;;;;;;;3.63;1.70;;;18.60;76.80;;;;;;6273754;22;21663;-86
2022/09/22 12:44:29;;;;;;;2.90;1.40;;;18.40;74.60;;;;;;6273709;22;20359;-86
2022/09/22 12:47:01;;;;;;;1.83;1.63;;;18.40;75.50;;;;;;6269558;22;20497;-86
2022/09/22 12:49:27;;;;;;;2.10;1.50;;;;;;;;;;6275089;22;20458;-86
2022/09/22 12:51:53;;;;;;;1.73;1.40;;;;;;;;;;6272298;22;20390;-87
2022/09/22 12:54:21;;;;;;;2.80;1.20;;;18.10;77.20;;;;;;6270707;22;21114;-86
2022/09/22 12:57:07;;;;;;;2.83;1.40;;;18.10;76.70;;;;;;6273467;22;20505;-87
2022/09/22 12:59:41;;;;;;;1.80;1.37;;;18.10;77.10;;;;;;6250814;22;20406;-86
2022/09/22 13:02:10;;;;;;;6.37;5.03;;;18.10;74.10;;;;;;6270104;22;20872;-86
2022/09/22 13:04:36;;;;;;;7.10;6.40;;;;;;;;;;6270893;22;20378;-86
2022/09/22 13:07:02;;;;;;;4.20;2.10;;;;;;;;;;6272304;22;20413;-86
2022/09/22 13:09:29;;;;;;;2.87;1.27;;;17.70;76.60;;;;;;6270469;22;20374;-86
2022/09/22 13:12:13;;;;;;;8.40;1.10;;;17.60;77.20;;;;;;6271295;22;20374;-86
2022/09/22 13:14:58;;;;;;;2.47;1.30;;;17.80;76.00;;;;;;6274923;22;20354;-87
2022/09/22 13:17:44;;;;;;;3.30;2.17;;;18.70;73.70;;;;;;6294029;22;20414;-86
2022/09/22 13:20:42;;;;;;;1.73;1.60;;;18.70;73.60;;;;;;6275922;22;20387;-86
2022/09/22 13:23:12;;;;;;;2.80;1.10;;;19.10;70.10;;;;;;6207366;22;20378;-86
2022/09/22 13:25:39;;;;;;;2.63;2.30;;;19.50;68.10;;;;;;6276877;22;20432;-86
2022/09/22 13:28:11;;;;;;;3.63;1.43;;;19.50;69.20;;;;;;6274368;22;20405;-85
2022/09/22 13:30:39;;;;;;;1.57;1.47;;;19.70;66.20;;;;;;6272707;22;20428;-86
2022/09/22 13:33:04;;;;;;;3.00;1.10;;;19.70;66.40;;;;;;6274333;22;20366;-86
2022/09/22 13:35:34;;;;;;;1.20;1.10;;;19.50;64.10;;;;;;6275563;22;20367;-86
2022/09/22 13:38:00;;;;;;;2.50;1.57;;;;;;;;;;6275093;22;20406;-86
2022/09/22 13:40:30;;;;;;;1.40;1.30;;;19.40;63.70;;;;;;6276327;22;20928;-86
2022/09/22 13:43:00;;;;;;;1.23;1.13;;;19.40;63.50;;;;;;6274915;22;20366;-86
2022/09/22 13:45:26;;;;;;;5.50;1.40;;;19.50;64.90;;;;;;6276810;22;20879;-86
2022/09/22 13:48:07;;;;;;;1.73;1.20;;;19.60;65.70;;;;;;6275598;22;20385;-85
2022/09/22 13:50:40;;;;;;;2.40;1.57;;;20.00;64.00;;;;;;6277086;22;20414;-86
2022/09/22 13:53:06;;;;;;;0.97;0.90;;;19.80;60.70;;;;;;6285604;22;20446;-85
2022/09/22 13:55:36;;;;;;;4.43;1.13;;;19.70;60.10;;;;;;6299260;22;20413;-87